createdAt,value
2023-05-14T00:00:35.662Z,7.13
2023-05-14T00:01:37.336Z,6.30
2023-05-14T00:02:39.132Z,7.32
2023-05-14T00:03:41.215Z,7.43
2023-05-14T00:04:43.069Z,7.03
2023-05-14T00:05:44.668Z,7.75
2023-05-14T00:06:46.480Z,7.22
2023-05-14T00:07:48.043Z,7.28
2023-05-14T00:08:49.579Z,7.13
2023-05-14T00:09:51.138Z,6.55
2023-05-14T00:10:52.684Z,6.43
2023-05-14T00:11:54.289Z,7.25
2023-05-14T00:12:55.838Z,7.65
2023-05-14T00:13:57.403Z,7.20
2023-05-14T00:14:59.060Z,6.68
2023-05-14T00:16:00.673Z,6.70
2023-05-14T00:17:02.268Z,7.22
2023-05-14T00:18:03.967Z,7.60
2023-05-14T00:19:05.809Z,7.28
2023-05-14T00:20:07.848Z,7.45
2023-05-14T00:21:09.426Z,7.03
2023-05-14T00:22:11.138Z,7.10
2023-05-14T00:23:12.700Z,7.07
2023-05-14T00:24:14.597Z,7.20
2023-05-14T00:25:16.207Z,7.07
2023-05-14T00:26:17.775Z,7.10
2023-05-14T00:27:19.951Z,6.80
2023-05-14T00:28:21.727Z,6.68
2023-05-14T00:29:23.473Z,7.03
2023-05-14T00:30:25.356Z,7.15
2023-05-14T00:31:28.365Z,6.60
2023-05-14T00:32:29.968Z,7.57
2023-05-14T00:33:31.699Z,6.93
2023-05-14T00:34:33.670Z,7.40
2023-05-14T00:35:35.921Z,7.68
2023-05-14T00:36:37.810Z,6.70
2023-05-14T00:37:39.489Z,7.18
2023-05-14T00:38:41.077Z,7.20
2023-05-14T00:39:42.978Z,7.60
2023-05-14T00:40:51.789Z,7.18
2023-05-14T00:41:53.430Z,6.95
2023-05-14T00:42:56.065Z,6.93
2023-05-14T00:43:57.610Z,7.05
2023-05-14T00:44:59.248Z,7.20
2023-05-14T00:46:00.987Z,7.53
2023-05-14T00:47:03.569Z,7.25
2023-05-14T00:48:05.733Z,7.70
2023-05-14T00:49:07.355Z,7.15
2023-05-14T00:50:09.295Z,7.20
2023-05-14T00:51:11.042Z,6.93
2023-05-14T00:52:12.822Z,7.50
2023-05-14T00:53:14.661Z,7.38
2023-05-14T00:54:16.719Z,7.50
2023-05-14T00:55:19.063Z,7.30
2023-05-14T00:56:21.301Z,6.93
2023-05-14T00:57:22.852Z,7.43
2023-05-14T00:58:24.796Z,7.65
2023-05-14T00:59:26.505Z,7.20
2023-05-14T01:00:28.109Z,6.97
2023-05-14T01:01:29.822Z,7.95
2023-05-14T01:02:31.508Z,7.70
2023-05-14T01:03:33.776Z,7.70
2023-05-14T01:04:35.574Z,7.20
2023-05-14T01:05:43.822Z,6.93
2023-05-14T01:07:01.395Z,6.90
2023-05-14T01:08:10.785Z,7.22
2023-05-14T01:09:21.806Z,7.22
2023-05-14T01:10:46.155Z,12.95
2023-05-14T01:12:18.797Z,7.68
2023-05-14T01:13:35.098Z,7.45
2023-05-14T01:14:54.740Z,7.15
2023-05-14T01:15:57.697Z,6.95
2023-05-14T01:16:59.816Z,7.40
2023-05-14T01:18:10.936Z,6.65
2023-05-14T01:19:22.525Z,7.15
2023-05-14T01:20:24.306Z,7.68
2023-05-14T01:21:40.805Z,7.80
2023-05-14T01:22:42.674Z,7.65
2023-05-14T01:23:44.233Z,7.82
2023-05-14T01:24:45.784Z,6.82
2023-05-14T01:25:47.469Z,7.32
2023-05-14T01:26:49.071Z,7.63
2023-05-14T01:28:05.718Z,7.40
2023-05-14T01:29:20.682Z,6.65
2023-05-14T01:30:34.706Z,7.40
2023-05-14T01:31:39.282Z,7.60
2023-05-14T01:32:41.885Z,7.03
2023-05-14T01:33:43.945Z,8.00
2023-05-14T01:34:47.369Z,7.68
2023-05-14T01:35:49.814Z,7.75
2023-05-14T01:36:51.823Z,7.45
2023-05-14T01:37:58.726Z,7.82
2023-05-14T01:39:01.946Z,7.40
2023-05-14T01:40:05.870Z,7.63
2023-05-14T01:41:07.744Z,7.50
2023-05-14T01:42:09.876Z,8.75
2023-05-14T01:43:11.906Z,7.38
2023-05-14T01:44:13.629Z,7.65
2023-05-14T01:45:16.293Z,7.57
2023-05-14T01:46:19.636Z,7.10
2023-05-14T01:47:21.503Z,7.43
2023-05-14T01:48:23.604Z,8.20
2023-05-14T01:49:25.874Z,7.78
2023-05-14T01:50:27.587Z,7.80
2023-05-14T01:51:29.166Z,7.85
2023-05-14T01:52:30.778Z,7.32
2023-05-14T01:53:34.839Z,7.78
2023-05-14T01:54:36.517Z,7.95
2023-05-14T01:55:38.091Z,7.43
2023-05-14T01:56:39.737Z,7.97
2023-05-14T01:57:41.462Z,7.97
2023-05-14T01:58:43.298Z,8.15
2023-05-14T01:59:45.707Z,8.52
2023-05-14T02:00:47.340Z,8.13
2023-05-14T02:01:48.957Z,8.88
2023-05-14T02:02:50.723Z,8.65
2023-05-14T02:03:52.378Z,7.80
2023-05-14T02:04:54.002Z,8.10
2023-05-14T02:05:55.944Z,8.43
2023-05-14T02:06:57.575Z,7.82
2023-05-14T02:07:59.514Z,8.60
2023-05-14T02:09:01.127Z,8.30
2023-05-14T02:10:02.866Z,8.10
2023-05-14T02:11:04.741Z,8.57
2023-05-14T02:12:07.338Z,8.75
2023-05-14T02:13:09.688Z,8.02
2023-05-14T02:14:11.504Z,8.30
2023-05-14T02:15:13.148Z,8.25
2023-05-14T02:16:14.804Z,8.20
2023-05-14T02:17:17.681Z,8.82
2023-05-14T02:18:19.277Z,7.78
2023-05-14T02:19:20.987Z,8.80
2023-05-14T02:20:23.519Z,8.70
2023-05-14T02:21:25.284Z,8.00
2023-05-14T02:22:27.008Z,8.95
2023-05-14T02:23:40.311Z,8.02
2023-05-14T02:24:43.080Z,8.57
2023-05-14T02:25:44.926Z,8.60
2023-05-14T02:26:46.537Z,8.25
2023-05-14T02:27:48.183Z,9.00
2023-05-14T02:28:49.771Z,8.63
2023-05-14T02:29:51.399Z,9.43
2023-05-14T02:30:58.753Z,9.18
2023-05-14T02:32:00.446Z,8.63
2023-05-14T02:33:02.188Z,8.93
2023-05-14T02:34:06.589Z,8.57
2023-05-14T02:35:09.058Z,8.30
2023-05-14T02:36:10.779Z,8.65
2023-05-14T02:37:12.666Z,8.32
2023-05-14T02:38:14.476Z,8.13
2023-05-14T02:39:16.198Z,7.82
2023-05-14T02:40:20.467Z,8.52
2023-05-14T02:41:22.109Z,8.32
2023-05-14T02:42:23.730Z,7.65
2023-05-14T02:43:26.393Z,8.25
2023-05-14T02:44:28.008Z,8.05
2023-05-14T02:45:29.680Z,9.13
2023-05-14T02:46:32.078Z,8.13
2023-05-14T02:47:36.038Z,8.40
2023-05-14T02:48:39.222Z,8.32
2023-05-14T02:49:41.556Z,8.27
2023-05-14T02:50:43.404Z,8.05
2023-05-14T02:51:45.005Z,8.38
2023-05-14T02:52:46.649Z,8.68
2023-05-14T02:53:48.362Z,8.43
2023-05-14T02:54:50.020Z,8.18
2023-05-14T02:55:51.672Z,8.70
2023-05-14T02:56:53.307Z,7.97
2023-05-14T02:57:54.937Z,8.00
2023-05-14T02:58:56.561Z,7.90
2023-05-14T02:59:58.568Z,8.45
2023-05-14T03:01:00.585Z,8.15
2023-05-14T03:02:02.763Z,8.55
2023-05-14T03:04:07.726Z,7.57
2023-05-14T03:05:09.419Z,7.80
2023-05-14T03:06:11.065Z,8.80
2023-05-14T03:07:12.727Z,7.80
2023-05-14T03:08:14.361Z,8.13
2023-05-14T03:09:16.115Z,8.43
2023-05-14T03:10:17.863Z,9.20
2023-05-14T03:11:19.492Z,7.97
2023-05-14T03:12:21.241Z,7.38
2023-05-14T03:13:22.886Z,8.20
2023-05-14T03:14:24.526Z,8.40
2023-05-14T03:15:26.164Z,8.43
2023-05-14T03:16:27.831Z,8.50
2023-05-14T03:17:29.482Z,8.07
2023-05-14T03:18:33.330Z,7.78
2023-05-14T03:19:34.946Z,8.10
2023-05-14T03:20:36.612Z,8.30
2023-05-14T03:21:38.288Z,9.05
2023-05-14T03:22:39.953Z,8.63
2023-05-14T03:23:41.632Z,9.15
2023-05-14T03:24:43.237Z,8.95
2023-05-14T03:25:45.432Z,8.48
2023-05-14T03:26:47.057Z,8.77
2023-05-14T03:27:48.895Z,8.70
2023-05-14T03:28:51.354Z,8.30
2023-05-14T03:30:54.736Z,8.25
2023-05-14T03:31:56.435Z,8.60
2023-05-14T03:32:58.127Z,8.93
2023-05-14T03:33:59.804Z,8.93
2023-05-14T03:35:01.424Z,9.43
2023-05-14T03:36:03.402Z,8.95
2023-05-14T03:37:05.409Z,9.90
2023-05-14T03:38:07.514Z,8.50
2023-05-14T03:39:09.737Z,8.98
2023-05-14T03:40:11.726Z,8.85
2023-05-14T03:41:13.425Z,8.10
2023-05-14T03:42:15.015Z,9.55
2023-05-14T03:43:16.686Z,9.10
2023-05-14T03:44:18.492Z,9.32
2023-05-14T03:45:20.245Z,8.52
2023-05-14T03:46:21.872Z,9.35
2023-05-14T03:47:23.510Z,8.98
2023-05-14T03:48:25.323Z,9.13
2023-05-14T03:49:27.277Z,8.48
2023-05-14T03:50:29.707Z,8.98
2023-05-14T03:51:31.869Z,8.50
2023-05-14T03:52:33.511Z,8.15
2023-05-14T03:53:37.562Z,8.18
2023-05-14T03:54:41.292Z,8.93
2023-05-14T03:55:42.908Z,8.02
2023-05-14T03:56:46.227Z,7.93
2023-05-14T03:57:48.693Z,8.05
2023-05-14T03:58:50.292Z,8.18
2023-05-14T03:59:51.942Z,8.10
2023-05-14T04:01:55.848Z,8.45
2023-05-14T04:02:57.551Z,7.88
2023-05-14T04:03:59.384Z,8.57
2023-05-14T04:05:01.463Z,8.68
2023-05-14T04:06:03.301Z,7.20
2023-05-14T04:07:04.948Z,7.82
2023-05-14T04:08:06.593Z,8.13
2023-05-14T04:09:08.227Z,8.23
2023-05-14T04:10:10.180Z,8.45
2023-05-14T04:11:11.830Z,7.82
2023-05-14T04:12:13.536Z,8.27
2023-05-14T04:13:15.852Z,7.75
2023-05-14T04:14:18.234Z,8.15
2023-05-14T04:15:20.207Z,7.53
2023-05-14T04:16:21.878Z,8.32
2023-05-14T04:17:23.586Z,8.05
2023-05-14T04:18:25.558Z,8.20
2023-05-14T04:19:27.198Z,8.00
2023-05-14T04:20:28.829Z,7.22
2023-05-14T04:21:30.533Z,7.60
2023-05-14T04:22:32.446Z,8.38
2023-05-14T04:23:34.129Z,7.93
2023-05-14T04:24:35.809Z,7.80
2023-05-14T04:25:37.520Z,7.60
2023-05-14T04:26:39.102Z,7.50
2023-05-14T04:27:40.683Z,7.47
2023-05-14T04:28:42.362Z,8.30
2023-05-14T04:29:44.221Z,7.47
2023-05-14T04:30:45.892Z,7.60
2023-05-14T04:31:48.866Z,7.65
2023-05-14T04:32:50.572Z,8.30
2023-05-14T04:33:52.260Z,7.82
2023-05-14T04:34:53.892Z,7.55
2023-05-14T04:35:55.723Z,8.68
2023-05-14T04:36:57.384Z,8.15
2023-05-14T04:37:59.238Z,8.02
2023-05-14T04:39:00.823Z,8.18
2023-05-14T04:40:02.679Z,7.72
2023-05-14T04:41:04.484Z,8.25
2023-05-14T04:42:06.801Z,8.70
2023-05-14T04:43:08.457Z,8.07
2023-05-14T04:44:10.055Z,8.30
2023-05-14T04:45:12.669Z,8.30
2023-05-14T04:46:14.350Z,8.00
2023-05-14T04:47:16.153Z,8.07
2023-05-14T04:48:17.884Z,8.45
2023-05-14T04:49:20.846Z,9.10
2023-05-14T04:50:22.665Z,8.30
2023-05-14T04:51:24.448Z,8.57
2023-05-14T04:52:26.194Z,8.77
2023-05-14T04:53:27.757Z,8.70
2023-05-14T04:54:29.373Z,8.90
2023-05-14T04:55:31.121Z,8.65
2023-05-14T04:56:32.681Z,8.48
2023-05-14T04:57:34.282Z,9.27
2023-05-14T04:58:35.959Z,8.18
2023-05-14T04:59:37.571Z,8.77
2023-05-14T05:00:40.144Z,9.68
2023-05-14T05:01:41.860Z,8.68
2023-05-14T05:02:43.700Z,9.35
2023-05-14T05:03:45.466Z,8.60
2023-05-14T05:04:47.233Z,8.52
2023-05-14T05:05:48.875Z,8.52
2023-05-14T05:06:50.944Z,9.93
2023-05-14T05:07:52.567Z,8.90
2023-05-14T05:08:54.168Z,9.45
2023-05-14T05:09:55.899Z,9.93
2023-05-14T05:10:57.542Z,9.40
2023-05-14T05:11:59.208Z,9.40
2023-05-14T05:13:00.793Z,9.43
2023-05-14T05:14:02.585Z,9.80
2023-05-14T05:15:04.995Z,9.90
2023-05-14T05:16:06.908Z,9.13
2023-05-14T05:17:08.562Z,10.73
2023-05-14T05:18:10.256Z,9.65
2023-05-14T05:19:12.020Z,9.05
2023-05-14T05:20:13.840Z,9.45
2023-05-14T05:21:15.761Z,9.68
2023-05-14T05:22:17.441Z,8.88
2023-05-14T05:23:19.045Z,9.95
2023-05-14T05:24:20.695Z,9.32
2023-05-14T05:25:22.355Z,8.45
2023-05-14T05:26:26.796Z,9.05
2023-05-14T05:27:28.432Z,10.15
2023-05-14T05:28:30.079Z,10.18
2023-05-14T05:29:31.698Z,10.63
2023-05-14T05:30:33.389Z,10.07
2023-05-14T05:31:35.156Z,9.85
2023-05-14T05:32:36.934Z,10.73
2023-05-14T05:33:39.266Z,10.38
2023-05-14T05:34:41.336Z,10.32
2023-05-14T05:35:44.510Z,9.68
2023-05-14T05:36:46.113Z,9.60
2023-05-14T05:37:47.760Z,10.10
2023-05-14T05:38:49.541Z,10.25
2023-05-14T05:39:51.194Z,10.48
2023-05-14T05:40:52.904Z,11.13
2023-05-14T05:41:54.542Z,10.57
2023-05-14T05:42:56.165Z,10.10
2023-05-14T05:43:57.783Z,11.05
2023-05-14T05:44:59.378Z,10.55
2023-05-14T05:46:01.541Z,10.88
2023-05-14T05:47:03.587Z,11.35
2023-05-14T05:48:05.642Z,10.32
2023-05-14T05:49:07.262Z,10.75
2023-05-14T05:50:09.764Z,10.90
2023-05-14T05:52:13.417Z,9.82
2023-05-14T05:53:16.711Z,10.00
2023-05-14T05:54:18.326Z,10.48
2023-05-14T05:55:20.021Z,11.13
2023-05-14T05:56:22.057Z,10.95
2023-05-14T05:57:25.114Z,11.90
2023-05-14T05:58:27.911Z,10.27
2023-05-14T05:59:29.555Z,11.45
2023-05-14T06:00:31.499Z,12.20
2023-05-14T06:01:33.111Z,11.00
2023-05-14T06:02:35.033Z,11.07
2023-05-14T06:03:36.689Z,12.55
2023-05-14T06:04:38.533Z,11.90
2023-05-14T06:05:40.266Z,11.88
2023-05-14T06:06:41.937Z,12.68
2023-05-14T06:07:43.633Z,11.57
2023-05-14T06:08:45.277Z,12.40
2023-05-14T06:09:46.907Z,11.60
2023-05-14T06:10:48.488Z,12.13
2023-05-14T06:11:50.112Z,11.82
2023-05-14T06:12:51.776Z,11.65
2023-05-14T06:13:53.936Z,11.80
2023-05-14T06:14:57.747Z,11.73
2023-05-14T06:15:59.421Z,12.50
2023-05-14T06:17:01.221Z,12.55
2023-05-14T06:18:03.022Z,12.07
2023-05-14T06:19:04.907Z,12.43
2023-05-14T06:20:07.998Z,11.88
2023-05-14T06:21:09.626Z,11.90
2023-05-14T06:22:11.316Z,10.73
2023-05-14T06:23:12.974Z,10.95
2023-05-14T06:24:14.624Z,11.50
2023-05-14T06:25:16.293Z,11.95
2023-05-14T06:26:17.867Z,11.60
2023-05-14T06:27:19.800Z,12.10
2023-05-14T06:28:21.517Z,12.32
2023-05-14T06:29:23.150Z,11.48
2023-05-14T06:30:25.024Z,11.32
2023-05-14T06:31:26.865Z,11.63
2023-05-14T06:32:28.486Z,10.05
2023-05-14T06:33:31.294Z,11.30
2023-05-14T06:34:33.062Z,11.15
2023-05-14T06:35:34.726Z,11.35
2023-05-14T06:36:36.333Z,11.57
2023-05-14T06:37:37.970Z,11.45
2023-05-14T06:38:39.589Z,11.18
2023-05-14T06:39:46.603Z,11.63
2023-05-14T06:40:48.176Z,10.65
2023-05-14T06:41:49.851Z,11.88
2023-05-14T06:42:51.467Z,11.23
2023-05-14T06:43:53.096Z,10.90
2023-05-14T06:44:54.781Z,10.55
2023-05-14T06:45:56.388Z,11.32
2023-05-14T06:46:58.046Z,10.95
2023-05-14T06:47:59.908Z,11.80
2023-05-14T06:49:01.725Z,11.05
2023-05-14T06:50:03.764Z,10.93
2023-05-14T06:51:05.459Z,10.45
2023-05-14T06:52:07.116Z,11.13
2023-05-14T06:53:08.738Z,11.25
2023-05-14T06:54:10.338Z,11.45
2023-05-14T06:55:12.056Z,11.38
2023-05-14T06:56:14.713Z,11.32
2023-05-14T06:57:16.395Z,12.13
2023-05-14T06:58:18.075Z,11.50
2023-05-14T06:59:19.719Z,11.25
2023-05-14T07:00:22.060Z,11.25
2023-05-14T07:02:25.704Z,11.75
2023-05-14T07:03:27.347Z,12.23
2023-05-14T07:04:29.072Z,11.32
2023-05-14T07:05:30.935Z,11.45
2023-05-14T07:06:32.611Z,11.50
2023-05-14T07:07:34.276Z,12.23
2023-05-14T07:08:36.136Z,12.55
2023-05-14T07:09:37.722Z,11.43
2023-05-14T07:10:39.620Z,11.23
2023-05-14T07:11:41.642Z,12.07
2023-05-14T07:12:43.244Z,12.02
2023-05-14T07:13:44.926Z,11.93
2023-05-14T07:14:46.616Z,12.00
2023-05-14T07:15:48.259Z,11.00
2023-05-14T07:16:49.935Z,11.05
2023-05-14T07:17:51.568Z,11.65
2023-05-14T07:18:53.330Z,10.95
2023-05-14T07:19:56.037Z,11.93
2023-05-14T07:20:57.661Z,12.05
2023-05-14T07:21:59.245Z,11.05
2023-05-14T07:23:00.857Z,10.80
2023-05-14T07:24:02.603Z,10.75
2023-05-14T07:25:04.435Z,10.25
2023-05-14T07:26:06.568Z,10.38
2023-05-14T07:27:08.642Z,11.15
2023-05-14T07:28:10.193Z,10.95
2023-05-14T07:29:11.885Z,11.02
2023-05-14T07:30:13.682Z,11.77
2023-05-14T07:31:15.722Z,11.35
2023-05-14T07:32:17.344Z,10.95
2023-05-14T07:33:19.019Z,11.75
2023-05-14T07:34:20.996Z,11.60
2023-05-14T07:35:22.926Z,12.70
2023-05-14T07:36:24.548Z,11.45
2023-05-14T07:37:26.246Z,11.73
2023-05-14T07:38:28.000Z,12.10
2023-05-14T07:39:29.600Z,11.85
2023-05-14T07:40:31.425Z,11.25
2023-05-14T07:41:33.066Z,12.48
2023-05-14T07:42:37.177Z,12.80
2023-05-14T07:43:40.512Z,12.93
2023-05-14T07:44:42.211Z,13.63
2023-05-14T07:45:43.981Z,14.35
2023-05-14T07:46:45.644Z,16.92
2023-05-14T07:47:47.400Z,12.77
2023-05-14T07:48:49.109Z,13.18
2023-05-14T07:49:54.518Z,13.23
2023-05-14T07:50:56.168Z,14.82
2023-05-14T07:51:57.831Z,12.02
2023-05-14T07:52:59.466Z,11.88
2023-05-14T07:54:01.323Z,11.70
2023-05-14T07:55:03.886Z,11.57
2023-05-14T07:56:05.936Z,11.13
2023-05-14T07:57:07.675Z,11.10
2023-05-14T07:58:09.253Z,10.90
2023-05-14T07:59:10.874Z,11.27
2023-05-14T08:00:13.143Z,11.73
2023-05-14T08:01:14.724Z,12.32
2023-05-14T08:02:16.968Z,10.75
2023-05-14T08:04:20.520Z,12.77
2023-05-14T08:05:22.168Z,11.65
2023-05-14T08:06:27.483Z,10.82
2023-05-14T08:07:30.110Z,10.63
2023-05-14T08:08:31.738Z,10.75
2023-05-14T08:09:33.385Z,10.18
2023-05-14T08:10:35.009Z,11.02
2023-05-14T08:11:36.685Z,10.10
2023-05-14T08:12:38.932Z,10.48
2023-05-14T08:13:40.706Z,10.20
2023-05-14T08:14:43.554Z,11.05
2023-05-14T08:15:45.614Z,11.43
2023-05-14T08:16:47.801Z,11.35
2023-05-14T08:17:49.518Z,10.80
2023-05-14T08:18:51.157Z,10.48
2023-05-14T08:19:53.719Z,10.55
2023-05-14T08:20:55.401Z,11.68
2023-05-14T08:21:57.328Z,12.07
2023-05-14T08:22:58.934Z,11.25
2023-05-14T08:24:00.746Z,11.95
2023-05-14T08:25:03.830Z,11.00
2023-05-14T08:26:05.453Z,11.98
2023-05-14T08:27:07.195Z,12.32
2023-05-14T08:28:08.842Z,11.70
2023-05-14T08:29:11.578Z,12.77
2023-05-14T08:30:14.218Z,11.77
2023-05-14T08:31:15.966Z,12.13
2023-05-14T08:32:23.185Z,12.02
2023-05-14T08:33:25.623Z,11.90
2023-05-14T08:34:28.030Z,12.48
2023-05-14T08:36:31.516Z,12.15
2023-05-14T08:37:33.165Z,10.05
2023-05-14T08:38:34.827Z,10.45
2023-05-14T08:39:36.398Z,11.35
2023-05-14T08:40:38.038Z,10.57
2023-05-14T08:41:40.394Z,10.35
2023-05-14T08:42:43.105Z,10.35
2023-05-14T08:43:47.415Z,10.10
2023-05-14T08:44:50.263Z,10.32
2023-05-14T08:45:54.453Z,11.63
2023-05-14T08:46:56.381Z,10.45
2023-05-14T08:47:58.635Z,10.88
2023-05-14T08:49:40.749Z,10.57
2023-05-14T08:50:43.675Z,10.23
2023-05-14T08:51:48.325Z,10.50
2023-05-14T08:52:50.080Z,9.48
2023-05-14T08:53:51.895Z,9.30
2023-05-14T08:54:54.054Z,10.45
2023-05-14T08:55:55.757Z,9.35
2023-05-14T08:56:57.722Z,8.55
2023-05-14T08:57:59.533Z,8.93
2023-05-14T08:59:01.220Z,8.80
2023-05-14T09:00:14.264Z,8.38
2023-05-14T09:01:16.383Z,8.68
2023-05-14T09:02:20.926Z,9.63
2023-05-14T09:03:23.294Z,8.40
2023-05-14T09:04:25.331Z,8.13
2023-05-14T09:05:27.450Z,8.57
2023-05-14T09:06:29.428Z,8.05
2023-05-14T09:07:31.049Z,8.52
2023-05-14T09:08:33.312Z,8.18
2023-05-14T09:09:35.462Z,7.43
2023-05-14T09:10:37.062Z,7.78
2023-05-14T09:11:42.745Z,8.02
2023-05-14T09:12:44.429Z,7.47
2023-05-14T09:13:46.042Z,7.53
2023-05-14T09:14:48.742Z,7.70
2023-05-14T09:15:51.193Z,7.32
2023-05-14T09:17:55.038Z,6.38
2023-05-14T09:18:56.698Z,6.45
2023-05-14T09:19:58.520Z,5.90
2023-05-14T09:21:00.378Z,6.50
2023-05-14T09:22:01.990Z,6.93
2023-05-14T09:23:04.122Z,7.43
2023-05-14T09:24:06.092Z,5.72
2023-05-14T09:25:10.979Z,5.50
2023-05-14T09:26:17.522Z,4.93
2023-05-14T09:27:22.181Z,4.95
2023-05-14T09:28:24.348Z,5.03
2023-05-14T09:29:26.936Z,4.38
2023-05-14T09:30:28.556Z,4.75
2023-05-14T09:31:31.738Z,4.38
2023-05-14T09:32:40.462Z,4.65
2023-05-14T09:33:42.127Z,4.32
2023-05-14T09:34:43.719Z,4.47
2023-05-14T09:35:47.042Z,4.72
2023-05-14T09:36:48.645Z,5.22
2023-05-14T09:37:52.154Z,5.32
2023-05-14T09:38:56.901Z,5.70
2023-05-14T09:39:58.484Z,5.65
2023-05-14T09:41:00.790Z,5.70
2023-05-14T09:42:03.032Z,5.68
2023-05-14T09:43:04.727Z,5.53
2023-05-14T09:44:06.818Z,5.78
2023-05-14T09:45:09.577Z,6.20
2023-05-14T09:46:11.150Z,6.05
2023-05-14T09:47:15.375Z,6.10
2023-05-14T09:48:17.404Z,6.05
2023-05-14T09:49:19.573Z,5.72
2023-05-14T09:50:21.361Z,6.00
2023-05-14T09:51:23.529Z,5.85
2023-05-14T09:52:25.313Z,6.13
2023-05-14T09:53:27.326Z,5.95
2023-05-14T09:54:29.242Z,6.43
2023-05-14T09:55:31.374Z,5.75
2023-05-14T09:56:34.124Z,6.25
2023-05-14T09:57:35.816Z,6.10
2023-05-14T09:58:37.517Z,5.60
2023-05-14T09:59:39.262Z,6.45
2023-05-14T10:00:44.901Z,5.80
2023-05-14T10:01:46.651Z,5.35
2023-05-14T10:02:49.287Z,5.60
2023-05-14T10:03:52.836Z,5.18
2023-05-14T10:04:57.991Z,5.47
2023-05-14T10:06:05.223Z,5.03
2023-05-14T10:07:06.899Z,5.18
2023-05-14T10:08:41.662Z,5.32
2023-05-14T10:09:44.249Z,4.90
2023-05-14T10:10:45.844Z,5.00
2023-05-14T10:11:50.163Z,5.00
2023-05-14T10:12:53.737Z,4.72
2023-05-14T10:13:57.939Z,4.85
2023-05-14T10:15:01.668Z,4.80
2023-05-14T10:16:11.785Z,5.00
2023-05-14T10:17:18.416Z,4.88
2023-05-14T10:18:23.684Z,4.47
2023-05-14T10:19:26.273Z,4.70
2023-05-14T10:20:28.364Z,4.75
2023-05-14T10:21:31.830Z,4.18
2023-05-14T10:22:35.187Z,4.82
2023-05-14T10:23:40.507Z,4.85
2023-05-14T10:24:42.625Z,4.75
2023-05-14T10:25:44.416Z,5.03
2023-05-14T10:26:46.266Z,5.03
2023-05-14T10:27:48.027Z,5.20
2023-05-14T10:28:49.847Z,5.05
2023-05-14T10:29:55.227Z,5.03
2023-05-14T10:30:56.850Z,5.05
2023-05-14T10:31:58.428Z,4.90
2023-05-14T10:33:13.557Z,5.00
2023-05-14T10:34:46.431Z,4.90
2023-05-14T10:37:15.029Z,3.85
2023-05-14T10:38:16.778Z,4.60
2023-05-14T10:39:18.370Z,4.53
2023-05-14T10:40:20.376Z,4.70
2023-05-14T10:41:22.129Z,5.25
2023-05-14T10:42:33.444Z,5.50
2023-05-14T10:43:37.698Z,4.53
2023-05-14T10:44:46.236Z,5.20
2023-05-14T10:46:49.407Z,4.53
2023-05-14T10:47:51.283Z,4.97
2023-05-14T10:48:53.287Z,4.72
2023-05-14T10:49:56.936Z,5.75
2023-05-14T10:50:58.741Z,5.22
2023-05-14T10:52:00.469Z,5.35
2023-05-14T10:53:02.725Z,4.85
2023-05-14T10:54:04.405Z,5.40
2023-05-14T10:55:12.926Z,5.28
2023-05-14T10:57:18.360Z,4.72
2023-05-14T10:58:21.098Z,4.72
2023-05-14T10:59:27.378Z,5.05
2023-05-14T11:00:29.256Z,5.43
2023-05-14T11:01:31.991Z,4.60
2023-05-14T11:02:37.002Z,5.07
2023-05-14T11:03:43.735Z,4.80
2023-05-14T11:04:54.956Z,4.70
2023-05-14T11:05:56.580Z,4.53
2023-05-14T11:06:58.444Z,4.80
2023-05-14T11:08:02.371Z,5.13
2023-05-14T11:09:05.112Z,4.93
2023-05-14T11:10:09.269Z,4.85
2023-05-14T11:11:11.068Z,4.60
2023-05-14T11:12:12.695Z,5.30
2023-05-14T11:13:16.314Z,5.68
2023-05-14T11:14:18.113Z,4.88
2023-05-14T11:15:21.771Z,5.07
2023-05-14T11:16:24.421Z,4.97
2023-05-14T11:17:27.088Z,4.93
2023-05-14T11:18:38.663Z,4.53
2023-05-14T11:19:43.654Z,5.32
2023-05-14T11:20:45.400Z,5.20
2023-05-14T11:21:47.353Z,5.40
2023-05-14T11:22:51.532Z,4.82
2023-05-14T11:23:55.372Z,10.48
2023-05-14T11:24:57.558Z,10.32
2023-05-14T11:25:59.206Z,6.00
2023-05-14T11:27:00.894Z,5.55
2023-05-14T11:28:02.588Z,4.40
2023-05-14T11:29:05.214Z,4.95
2023-05-14T11:30:17.910Z,5.85
2023-05-14T11:31:19.682Z,8.40
2023-05-14T11:32:21.653Z,13.90
2023-05-14T11:33:23.263Z,5.28
2023-05-14T11:34:24.856Z,5.20
2023-05-14T11:35:26.500Z,6.38
2023-05-14T11:36:28.100Z,5.85
2023-05-14T11:37:30.797Z,8.50
2023-05-14T11:38:32.464Z,5.20
2023-05-14T11:39:35.966Z,5.28
2023-05-14T11:40:37.592Z,6.82
2023-05-14T11:41:45.085Z,5.70
2023-05-14T11:42:46.777Z,5.85
2023-05-14T11:43:48.489Z,6.90
2023-05-14T11:44:51.908Z,5.47
2023-05-14T11:45:54.300Z,4.68
2023-05-14T11:46:59.220Z,4.68
2023-05-14T11:48:01.062Z,4.63
2023-05-14T11:49:06.640Z,4.32
2023-05-14T11:50:09.641Z,4.57
2023-05-14T11:51:11.564Z,4.40
2023-05-14T11:52:15.148Z,4.82
2023-05-14T11:53:19.032Z,4.20
2023-05-14T11:54:20.625Z,4.20
2023-05-14T11:55:22.288Z,4.47
2023-05-14T11:56:23.943Z,4.82
2023-05-14T11:57:26.070Z,4.38
2023-05-14T11:58:27.673Z,4.70
2023-05-14T11:59:31.757Z,5.18
2023-05-14T12:00:34.191Z,4.32
2023-05-14T12:02:38.667Z,4.80
2023-05-14T12:03:40.603Z,4.35
2023-05-14T12:04:44.700Z,4.85
2023-05-14T12:05:57.157Z,4.82
2023-05-14T12:07:00.355Z,4.20
2023-05-14T12:08:02.016Z,4.55
2023-05-14T12:09:05.601Z,4.80
2023-05-14T12:10:07.921Z,4.57
2023-05-14T12:11:09.514Z,4.43
2023-05-14T12:12:12.162Z,4.57
2023-05-14T12:13:16.464Z,4.22
2023-05-14T12:14:24.248Z,4.43
2023-05-14T12:15:26.749Z,4.68
2023-05-14T12:17:40.040Z,4.20
2023-05-14T12:18:42.806Z,4.65
2023-05-14T12:19:46.514Z,4.20
2023-05-14T12:20:49.103Z,3.92
2023-05-14T12:21:51.134Z,4.60
2023-05-14T12:22:52.749Z,4.30
2023-05-14T12:24:00.884Z,4.07
2023-05-14T12:25:02.586Z,4.13
2023-05-14T12:26:06.672Z,4.30
2023-05-14T12:27:10.004Z,5.28
2023-05-14T12:28:15.893Z,4.57
2023-05-14T12:29:17.768Z,5.10
2023-05-14T12:30:21.889Z,4.68
2023-05-14T12:31:36.568Z,4.15
2023-05-14T12:32:40.952Z,3.85
2023-05-14T12:33:42.639Z,4.13
2023-05-14T12:34:44.222Z,4.22
2023-05-14T12:35:46.965Z,4.00
2023-05-14T12:36:48.554Z,3.58
2023-05-14T12:37:50.184Z,4.32
2023-05-14T12:39:01.491Z,4.55
2023-05-14T12:40:09.755Z,3.90
2023-05-14T12:41:11.443Z,4.00
2023-05-14T12:42:17.480Z,3.75
2023-05-14T12:43:19.670Z,3.80
2023-05-14T12:44:22.591Z,3.63
2023-05-14T12:45:24.554Z,4.10
2023-05-14T12:46:27.653Z,3.72
2023-05-14T12:47:29.360Z,3.50
2023-05-14T12:48:31.428Z,3.30
2023-05-14T12:49:33.006Z,3.70
2023-05-14T12:50:34.643Z,3.63
2023-05-14T12:51:36.308Z,3.53
2023-05-14T12:52:39.744Z,3.17
2023-05-14T12:53:41.796Z,3.22
2023-05-14T12:54:43.496Z,3.40
2023-05-14T12:55:45.236Z,3.08
2023-05-14T12:56:46.881Z,3.33
2023-05-14T12:57:48.569Z,3.20
2023-05-14T12:58:50.189Z,3.72
2023-05-14T12:59:51.812Z,3.42
2023-05-14T13:00:53.522Z,3.00
2023-05-14T13:01:55.145Z,3.22
2023-05-14T13:02:56.775Z,3.25
2023-05-14T13:03:59.526Z,3.45
2023-05-14T13:05:02.787Z,3.75
2023-05-14T13:06:04.587Z,3.20
2023-05-14T13:07:06.254Z,3.63
2023-05-14T13:08:07.886Z,3.78
2023-05-14T13:09:09.529Z,4.22
2023-05-14T13:10:11.578Z,4.03
2023-05-14T13:11:13.588Z,3.60
2023-05-14T13:12:15.546Z,3.60
2023-05-14T13:13:17.224Z,3.83
2023-05-14T13:14:20.163Z,3.45
2023-05-14T13:15:22.904Z,3.80
2023-05-14T13:16:26.236Z,4.53
2023-05-14T13:17:28.019Z,3.72
2023-05-14T13:18:29.769Z,3.85
2023-05-14T13:19:31.348Z,3.72
2023-05-14T13:20:33.870Z,3.53
2023-05-14T13:21:35.445Z,3.70
2023-05-14T13:22:37.062Z,3.92
2023-05-14T13:23:38.896Z,4.10
2023-05-14T13:24:40.498Z,3.78
2023-05-14T13:25:42.111Z,3.92
2023-05-14T13:26:44.957Z,3.72
2023-05-14T13:27:46.545Z,3.88
2023-05-14T13:28:48.175Z,4.40
2023-05-14T13:29:49.824Z,3.53
2023-05-14T13:31:11.304Z,3.85
2023-05-14T13:32:13.094Z,3.30
2023-05-14T13:33:14.968Z,3.50
2023-05-14T13:34:16.607Z,3.60
2023-05-14T13:35:18.310Z,3.28
2023-05-14T13:36:20.068Z,3.42
2023-05-14T13:37:21.681Z,3.17
2023-05-14T13:38:23.329Z,3.00
2023-05-14T13:39:27.071Z,3.13
2023-05-14T13:40:28.842Z,3.83
2023-05-14T13:41:32.421Z,3.58
2023-05-14T13:42:34.375Z,3.80
2023-05-14T13:43:36.095Z,3.28
2023-05-14T13:44:37.680Z,3.05
2023-05-14T13:45:39.283Z,3.13
2023-05-14T13:46:40.916Z,3.25
2023-05-14T13:47:42.750Z,3.53
2023-05-14T13:48:44.394Z,3.60
2023-05-14T13:49:45.983Z,3.10
2023-05-14T13:50:47.588Z,3.88
2023-05-14T13:51:49.223Z,3.47
2023-05-14T13:52:50.943Z,3.40
2023-05-14T13:54:59.041Z,3.30
2023-05-14T13:56:01.718Z,3.35
2023-05-14T13:57:03.700Z,3.50
2023-05-14T13:58:05.439Z,3.20
2023-05-14T13:59:07.126Z,3.00
2023-05-14T14:00:09.392Z,3.20
2023-05-14T14:01:11.210Z,3.53
2023-05-14T14:02:12.832Z,3.42
2023-05-14T14:03:14.444Z,2.90